sensor_id;sensor_type;location;lat;lon;timestamp;temperature;humidity
20963;DHT22;10640;50.140;8.138;2022-07-22T00:01:53;17.70;99.90
20963;DHT22;10640;50.140;8.138;2022-07-22T00:04:20;17.90;99.90
20963;DHT22;10640;50.140;8.138;2022-07-22T00:06:47;18.00;99.90
20963;DHT22;10640;50.140;8.138;2022-07-22T00:09:14;17.90;99.90
20963;DHT22;10640;50.140;8.138;2022-07-22T00:11:41;17.80;99.90
20963;DHT22;10640;50.140;8.138;2022-07-22T00:14:08;17.80;99.90
20963;DHT22;10640;50.140;8.138;2022-07-22T00:16:34;17.90;99.90
20963;DHT22;10640;50.140;8.138;2022-07-22T00:19:03;17.80;99.90
20963;DHT22;10640;50.140;8.138;2022-07-22T00:21:29;17.70;99.90
20963;DHT22;10640;50.140;8.138;2022-07-22T00:23:56;17.70;99.90
20963;DHT22;10640;50.140;8.138;2022-07-22T00:26:23;17.70;99.90
20963;DHT22;10640;50.140;8.138;2022-07-22T00:28:50;17.90;99.90
20963;DHT22;10640;50.140;8.138;2022-07-22T00:31:17;17.90;99.90
20963;DHT22;10640;50.140;8.138;2022-07-22T00:33:44;17.80;99.90
20963;DHT22;10640;50.140;8.138;2022-07-22T00:36:12;17.70;99.90
20963;DHT22;10640;50.140;8.138;2022-07-22T00:38:39;17.50;99.90
20963;DHT22;10640;50.140;8.138;2022-07-22T00:41:06;17.60;99.90
20963;DHT22;10640;50.140;8.138;2022-07-22T00:43:49;17.50;99.90
20963;DHT22;10640;50.140;8.138;2022-07-22T00:46:16;17.40;99.90
20963;DHT22;10640;50.140;8.138;2022-07-22T00:48:43;17.40;99.90
20963;DHT22;10640;50.140;8.138;2022-07-22T00:51:12;17.60;99.90
20963;DHT22;10640;50.140;8.138;2022-07-22T00:53:38;17.50;99.90
20963;DHT22;10640;50.140;8.138;2022-07-22T00:56:06;17.40;99.90
20963;DHT22;10640;50.140;8.138;2022-07-22T00:58:33;17.40;99.90
20963;DHT22;10640;50.140;8.138;2022-07-22T01:01:00;17.40;99.90
20963;DHT22;10640;50.140;8.138;2022-07-22T01:03:27;17.40;99.90
20963;DHT22;10640;50.140;8.138;2022-07-22T01:05:54;17.40;99.90
20963;DHT22;10640;50.140;8.138;2022-07-22T01:08:22;17.50;99.90
20963;DHT22;10640;50.140;8.138;2022-07-22T01:10:49;17.40;99.90
20963;DHT22;10640;50.140;8.138;2022-07-22T01:13:16;17.50;99.90
20963;DHT22;10640;50.140;8.138;2022-07-22T01:15:44;17.40;99.90
20963;DHT22;10640;50.140;8.138;2022-07-22T01:18:11;17.50;99.90
20963;DHT22;10640;50.140;8.138;2022-07-22T01:20:39;17.50;99.90
20963;DHT22;10640;50.140;8.138;2022-07-22T01:23:07;17.50;99.90
20963;DHT22;10640;50.140;8.138;2022-07-22T01:25:34;17.50;99.90
20963;DHT22;10640;50.140;8.138;2022-07-22T01:28:01;17.60;99.90
20963;DHT22;10640;50.140;8.138;2022-07-22T01:30:28;17.80;99.90
20963;DHT22;10640;50.140;8.138;2022-07-22T01:32:55;17.80;99.90
20963;DHT22;10640;50.140;8.138;2022-07-22T01:35:22;17.80;99.90
20963;DHT22;10640;50.140;8.138;2022-07-22T01:37:50;17.90;99.90
20963;DHT22;10640;50.140;8.138;2022-07-22T01:40:17;17.60;99.90
20963;DHT22;10640;50.140;8.138;2022-07-22T01:42:44;17.70;99.90
20963;DHT22;10640;50.140;8.138;2022-07-22T01:45:11;17.70;99.90
20963;DHT22;10640;50.140;8.138;2022-07-22T01:47:37;17.90;99.90
20963;DHT22;10640;50.140;8.138;2022-07-22T01:50:06;17.70;99.90
20963;DHT22;10640;50.140;8.138;2022-07-22T01:52:34;17.60;99.90
20963;DHT22;10640;50.140;8.138;2022-07-22T01:55:04;17.60;99.90
20963;DHT22;10640;50.140;8.138;2022-07-22T01:57:31;17.60;99.90
20963;DHT22;10640;50.140;8.138;2022-07-22T01:59:58;17.60;99.90
20963;DHT22;10640;50.140;8.138;2022-07-22T02:02:25;17.50;99.90
20963;DHT22;10640;50.140;8.138;2022-07-22T02:04:52;17.40;99.90
20963;DHT22;10640;50.140;8.138;2022-07-22T02:07:19;17.80;99.90
20963;DHT22;10640;50.140;8.138;2022-07-22T02:09:46;17.50;99.90
20963;DHT22;10640;50.140;8.138;2022-07-22T02:12:14;17.60;99.90
20963;DHT22;10640;50.140;8.138;2022-07-22T02:14:41;17.60;99.90
20963;DHT22;10640;50.140;8.138;2022-07-22T02:17:08;17.60;99.90
20963;DHT22;10640;50.140;8.138;2022-07-22T02:19:34;17.50;99.90
20963;DHT22;10640;50.140;8.138;2022-07-22T02:22:02;17.60;99.90
20963;DHT22;10640;50.140;8.138;2022-07-22T02:24:29;17.70;99.90
20963;DHT22;10640;50.140;8.138;2022-07-22T02:26:56;17.80;99.90
20963;DHT22;10640;50.140;8.138;2022-07-22T02:29:25;17.70;99.90
20963;DHT22;10640;50.140;8.138;2022-07-22T02:31:52;17.80;99.90
20963;DHT22;10640;50.140;8.138;2022-07-22T02:34:19;17.60;99.90
20963;DHT22;10640;50.140;8.138;2022-07-22T02:36:46;17.60;99.90
20963;DHT22;10640;50.140;8.138;2022-07-22T02:39:13;17.50;99.90
20963;DHT22;10640;50.140;8.138;2022-07-22T02:41:40;17.50;99.90
20963;DHT22;10640;50.140;8.138;2022-07-22T02:44:07;17.50;99.90
20963;DHT22;10640;50.140;8.138;2022-07-22T02:46:35;17.40;99.90
20963;DHT22;10640;50.140;8.138;2022-07-22T02:49:02;17.40;99.90
20963;DHT22;10640;50.140;8.138;2022-07-22T02:51:30;17.50;99.90
20963;DHT22;10640;50.140;8.138;2022-07-22T02:53:57;17.60;99.90
20963;DHT22;10640;50.140;8.138;2022-07-22T02:56:23;17.80;99.90
20963;DHT22;10640;50.140;8.138;2022-07-22T02:58:50;17.70;99.90
20963;DHT22;10640;50.140;8.138;2022-07-22T03:01:19;17.60;99.90
20963;DHT22;10640;50.140;8.138;2022-07-22T03:03:47;17.60;99.90
20963;DHT22;10640;50.140;8.138;2022-07-22T03:06:14;17.40;99.90
20963;DHT22;10640;50.140;8.138;2022-07-22T03:08:41;17.40;99.90
20963;DHT22;10640;50.140;8.138;2022-07-22T03:11:08;17.40;99.90
20963;DHT22;10640;50.140;8.138;2022-07-22T03:13:34;17.50;99.90
20963;DHT22;10640;50.140;8.138;2022-07-22T03:16:01;17.30;99.90
20963;DHT22;10640;50.140;8.138;2022-07-22T03:18:28;17.20;99.90
20963;DHT22;10640;50.140;8.138;2022-07-22T03:20:57;17.40;99.90
20963;DHT22;10640;50.140;8.138;2022-07-22T03:23:23;17.30;99.90
20963;DHT22;10640;50.140;8.138;2022-07-22T03:25:50;17.30;99.90
20963;DHT22;10640;50.140;8.138;2022-07-22T03:28:17;17.40;99.90
20963;DHT22;10640;50.140;8.138;2022-07-22T03:30:44;17.30;99.90
20963;DHT22;10640;50.140;8.138;2022-07-22T03:33:11;17.40;99.90
20963;DHT22;10640;50.140;8.138;2022-07-22T03:35:38;17.40;99.90
20963;DHT22;10640;50.140;8.138;2022-07-22T03:38:06;17.50;99.90
20963;DHT22;10640;50.140;8.138;2022-07-22T03:40:33;17.40;99.90
20963;DHT22;10640;50.140;8.138;2022-07-22T03:43:00;17.70;99.90
20963;DHT22;10640;50.140;8.138;2022-07-22T03:45:27;17.40;99.90
20963;DHT22;10640;50.140;8.138;2022-07-22T03:47:53;17.60;99.90
20963;DHT22;10640;50.140;8.138;2022-07-22T03:50:23;17.60;99.90
20963;DHT22;10640;50.140;8.138;2022-07-22T03:52:50;17.50;99.90
20963;DHT22;10640;50.140;8.138;2022-07-22T03:55:18;17.60;99.90
20963;DHT22;10640;50.140;8.138;2022-07-22T03:57:45;17.60;99.90
20963;DHT22;10640;50.140;8.138;2022-07-22T04:00:12;17.60;99.90
20963;DHT22;10640;50.140;8.138;2022-07-22T04:02:39;17.50;99.90
20963;DHT22;10640;50.140;8.138;2022-07-22T04:05:06;17.50;99.90
20963;DHT22;10640;50.140;8.138;2022-07-22T04:07:33;17.70;99.90
20963;DHT22;10640;50.140;8.138;2022-07-22T04:10:00;17.50;99.90
20963;DHT22;10640;50.140;8.138;2022-07-22T04:12:34;17.60;99.90
20963;DHT22;10640;50.140;8.138;2022-07-22T04:15:01;17.40;99.90
20963;DHT22;10640;50.140;8.138;2022-07-22T04:17:28;17.40;99.90
20963;DHT22;10640;50.140;8.138;2022-07-22T04:19:55;17.50;99.90
20963;DHT22;10640;50.140;8.138;2022-07-22T04:22:22;17.60;99.90
20963;DHT22;10640;50.140;8.138;2022-07-22T04:24:49;17.70;99.90
20963;DHT22;10640;50.140;8.138;2022-07-22T04:27:16;17.70;99.90
20963;DHT22;10640;50.140;8.138;2022-07-22T04:29:44;17.70;99.90
20963;DHT22;10640;50.140;8.138;2022-07-22T04:32:11;17.60;99.90
20963;DHT22;10640;50.140;8.138;2022-07-22T04:34:38;17.60;99.90
20963;DHT22;10640;50.140;8.138;2022-07-22T04:37:05;17.50;99.90
20963;DHT22;10640;50.140;8.138;2022-07-22T04:39:32;17.60;99.90
20963;DHT22;10640;50.140;8.138;2022-07-22T04:41:59;17.60;99.90
20963;DHT22;10640;50.140;8.138;2022-07-22T04:44:27;17.80;99.90
20963;DHT22;10640;50.140;8.138;2022-07-22T04:46:56;17.80;99.90
20963;DHT22;10640;50.140;8.138;2022-07-22T04:49:32;17.80;99.90
20963;DHT22;10640;50.140;8.138;2022-07-22T04:51:59;17.70;99.90
20963;DHT22;10640;50.140;8.138;2022-07-22T04:54:26;17.70;99.90
20963;DHT22;10640;50.140;8.138;2022-07-22T04:56:53;17.80;99.90
20963;DHT22;10640;50.140;8.138;2022-07-22T04:59:20;17.90;99.90
20963;DHT22;10640;50.140;8.138;2022-07-22T05:01:47;17.70;99.90
20963;DHT22;10640;50.140;8.138;2022-07-22T05:04:15;17.60;99.90
20963;DHT22;10640;50.140;8.138;2022-07-22T05:06:42;17.80;99.90
20963;DHT22;10640;50.140;8.138;2022-07-22T05:09:09;17.80;99.90
20963;DHT22;10640;50.140;8.138;2022-07-22T05:11:36;18.00;99.90
20963;DHT22;10640;50.140;8.138;2022-07-22T05:14:03;18.30;99.90
20963;DHT22;10640;50.140;8.138;2022-07-22T05:16:29;18.40;99.90
20963;DHT22;10640;50.140;8.138;2022-07-22T05:18:58;18.40;99.90
20963;DHT22;10640;50.140;8.138;2022-07-22T05:21:26;18.60;99.90
20963;DHT22;10640;50.140;8.138;2022-07-22T05:23:53;18.10;99.90
20963;DHT22;10640;50.140;8.138;2022-07-22T05:26:20;18.10;99.90
20963;DHT22;10640;50.140;8.138;2022-07-22T05:28:46;18.00;99.90
20963;DHT22;10640;50.140;8.138;2022-07-22T05:31:13;18.20;99.90
20963;DHT22;10640;50.140;8.138;2022-07-22T05:33:40;18.20;99.90
20963;DHT22;10640;50.140;8.138;2022-07-22T05:36:08;18.60;99.90
20963;DHT22;10640;50.140;8.138;2022-07-22T05:38:37;19.00;99.90
20963;DHT22;10640;50.140;8.138;2022-07-22T05:41:04;19.00;99.90
20963;DHT22;10640;50.140;8.138;2022-07-22T05:43:31;18.80;99.90
20963;DHT22;10640;50.140;8.138;2022-07-22T05:45:59;19.20;99.90
20963;DHT22;10640;50.140;8.138;2022-07-22T05:48:26;19.20;99.90
20963;DHT22;10640;50.140;8.138;2022-07-22T05:50:53;19.00;99.90
20963;DHT22;10640;50.140;8.138;2022-07-22T05:53:19;18.90;99.90
20963;DHT22;10640;50.140;8.138;2022-07-22T05:55:48;18.90;99.90
20963;DHT22;10640;50.140;8.138;2022-07-22T05:58:14;19.20;99.90
20963;DHT22;10640;50.140;8.138;2022-07-22T06:00:43;19.40;99.90
20963;DHT22;10640;50.140;8.138;2022-07-22T06:03:10;19.30;99.90
20963;DHT22;10640;50.140;8.138;2022-07-22T06:05:37;19.80;99.90
20963;DHT22;10640;50.140;8.138;2022-07-22T06:08:04;20.00;99.90
20963;DHT22;10640;50.140;8.138;2022-07-22T06:10:32;20.30;99.90
20963;DHT22;10640;50.140;8.138;2022-07-22T06:13:00;20.60;99.90
20963;DHT22;10640;50.140;8.138;2022-07-22T06:15:27;20.80;99.90
20963;DHT22;10640;50.140;8.138;2022-07-22T06:17:54;19.80;99.90
20963;DHT22;10640;50.140;8.138;2022-07-22T06:20:21;20.10;99.90
20963;DHT22;10640;50.140;8.138;2022-07-22T06:22:48;20.20;99.90
20963;DHT22;10640;50.140;8.138;2022-07-22T06:25:15;20.20;99.90
20963;DHT22;10640;50.140;8.138;2022-07-22T06:27:42;20.60;99.90
20963;DHT22;10640;50.140;8.138;2022-07-22T06:30:11;20.40;99.90
20963;DHT22;10640;50.140;8.138;2022-07-22T06:32:38;21.00;99.90
20963;DHT22;10640;50.140;8.138;2022-07-22T06:35:06;21.30;1.00
20963;DHT22;10640;50.140;8.138;2022-07-22T06:37:33;21.40;1.00
20963;DHT22;10640;50.140;8.138;2022-07-22T06:40:00;21.00;30.70
20963;DHT22;10640;50.140;8.138;2022-07-22T06:42:27;20.80;3.60
20963;DHT22;10640;50.140;8.138;2022-07-22T06:44:54;21.00;1.00
20963;DHT22;10640;50.140;8.138;2022-07-22T06:47:22;21.20;99.90
20963;DHT22;10640;50.140;8.138;2022-07-22T06:49:56;21.60;1.00
20963;DHT22;10640;50.140;8.138;2022-07-22T06:52:25;21.50;99.90
20963;DHT22;10640;50.140;8.138;2022-07-22T06:54:53;21.60;99.90
20963;DHT22;10640;50.140;8.138;2022-07-22T06:57:23;21.90;1.00
20963;DHT22;10640;50.140;8.138;2022-07-22T06:59:50;21.10;1.00
20963;DHT22;10640;50.140;8.138;2022-07-22T07:02:17;21.70;1.00
20963;DHT22;10640;50.140;8.138;2022-07-22T07:04:45;21.70;1.00
20963;DHT22;10640;50.140;8.138;2022-07-22T07:07:12;21.90;1.00
20963;DHT22;10640;50.140;8.138;2022-07-22T07:09:39;22.20;1.00
20963;DHT22;10640;50.140;8.138;2022-07-22T07:12:06;22.70;1.00
20963;DHT22;10640;50.140;8.138;2022-07-22T07:14:33;22.20;1.00
20963;DHT22;10640;50.140;8.138;2022-07-22T07:17:00;22.30;1.00
20963;DHT22;10640;50.140;8.138;2022-07-22T07:19:27;22.70;1.00
20963;DHT22;10640;50.140;8.138;2022-07-22T07:21:55;22.90;1.00
20963;DHT22;10640;50.140;8.138;2022-07-22T07:24:22;23.00;1.00
20963;DHT22;10640;50.140;8.138;2022-07-22T07:26:49;22.90;1.00
20963;DHT22;10640;50.140;8.138;2022-07-22T07:29:16;23.00;92.00
20963;DHT22;10640;50.140;8.138;2022-07-22T07:31:43;23.00;1.00
20963;DHT22;10640;50.140;8.138;2022-07-22T07:34:10;22.70;99.90
20963;DHT22;10640;50.140;8.138;2022-07-22T07:36:37;22.90;99.90
20963;DHT22;10640;50.140;8.138;2022-07-22T07:39:05;23.20;99.90
20963;DHT22;10640;50.140;8.138;2022-07-22T07:41:32;23.50;1.00
20963;DHT22;10640;50.140;8.138;2022-07-22T07:43:59;24.20;1.00
20963;DHT22;10640;50.140;8.138;2022-07-22T07:46:26;24.40;99.90
20963;DHT22;10640;50.140;8.138;2022-07-22T07:48:53;24.90;53.10
20963;DHT22;10640;50.140;8.138;2022-07-22T07:51:20;24.10;99.90
20963;DHT22;10640;50.140;8.138;2022-07-22T07:53:47;23.40;1.00
20963;DHT22;10640;50.140;8.138;2022-07-22T07:56:15;24.30;1.00
20963;DHT22;10640;50.140;8.138;2022-07-22T07:58:42;25.10;1.00
20963;DHT22;10640;50.140;8.138;2022-07-22T08:01:09;25.30;99.90
20963;DHT22;10640;50.140;8.138;2022-07-22T08:03:36;24.10;1.00
20963;DHT22;10640;50.140;8.138;2022-07-22T08:06:03;25.30;99.90
20963;DHT22;10640;50.140;8.138;2022-07-22T08:08:30;25.50;99.90
20963;DHT22;10640;50.140;8.138;2022-07-22T08:10:57;24.70;99.90
20963;DHT22;10640;50.140;8.138;2022-07-22T08:13:25;24.90;99.90
20963;DHT22;10640;50.140;8.138;2022-07-22T08:15:52;24.50;1.00
20963;DHT22;10640;50.140;8.138;2022-07-22T08:18:19;25.20;1.00
20963;DHT22;10640;50.140;8.138;2022-07-22T08:20:46;25.10;1.00
20963;DHT22;10640;50.140;8.138;2022-07-22T08:23:13;25.40;1.00
20963;DHT22;10640;50.140;8.138;2022-07-22T08:25:40;26.10;1.00
20963;DHT22;10640;50.140;8.138;2022-07-22T08:28:07;26.50;99.90
20963;DHT22;10640;50.140;8.138;2022-07-22T08:30:35;25.70;1.00
20963;DHT22;10640;50.140;8.138;2022-07-22T08:33:02;25.40;1.00
20963;DHT22;10640;50.140;8.138;2022-07-22T08:35:29;25.20;1.00
20963;DHT22;10640;50.140;8.138;2022-07-22T08:37:56;24.90;1.00
20963;DHT22;10640;50.140;8.138;2022-07-22T08:40:23;25.90;1.00
20963;DHT22;10640;50.140;8.138;2022-07-22T08:42:51;25.90;99.90
20963;DHT22;10640;50.140;8.138;2022-07-22T08:45:18;25.20;1.00
20963;DHT22;10640;50.140;8.138;2022-07-22T08:47:49;25.80;1.00
20963;DHT22;10640;50.140;8.138;2022-07-22T08:50:16;25.20;1.00
20963;DHT22;10640;50.140;8.138;2022-07-22T08:52:43;26.10;99.90
20963;DHT22;10640;50.140;8.138;2022-07-22T08:55:10;26.20;99.90
20963;DHT22;10640;50.140;8.138;2022-07-22T08:57:37;26.30;99.90
20963;DHT22;10640;50.140;8.138;2022-07-22T09:00:10;27.10;99.90
20963;DHT22;10640;50.140;8.138;2022-07-22T09:02:39;27.00;99.90
20963;DHT22;10640;50.140;8.138;2022-07-22T09:05:09;27.20;99.90
20963;DHT22;10640;50.140;8.138;2022-07-22T09:07:37;27.10;99.90
20963;DHT22;10640;50.140;8.138;2022-07-22T09:10:06;27.30;99.90
20963;DHT22;10640;50.140;8.138;2022-07-22T09:12:34;28.40;99.90
20963;DHT22;10640;50.140;8.138;2022-07-22T09:15:02;27.30;84.90
20963;DHT22;10640;50.140;8.138;2022-07-22T09:17:41;27.10;99.90
20963;DHT22;10640;50.140;8.138;2022-07-22T09:20:28;27.60;70.90
20963;DHT22;10640;50.140;8.138;2022-07-22T09:22:55;27.70;26.40
20963;DHT22;10640;50.140;8.138;2022-07-22T09:25:26;28.70;1.00
20963;DHT22;10640;50.140;8.138;2022-07-22T09:27:55;28.50;1.00
20963;DHT22;10640;50.140;8.138;2022-07-22T09:30:24;28.90;1.00
20963;DHT22;10640;50.140;8.138;2022-07-22T09:32:53;28.10;1.00
20963;DHT22;10640;50.140;8.138;2022-07-22T09:35:22;28.90;1.00
20963;DHT22;10640;50.140;8.138;2022-07-22T09:37:53;28.20;1.00
20963;DHT22;10640;50.140;8.138;2022-07-22T09:40:22;28.20;1.00
20963;DHT22;10640;50.140;8.138;2022-07-22T09:42:51;28.30;1.00
20963;DHT22;10640;50.140;8.138;2022-07-22T09:45:22;28.80;1.00
20963;DHT22;10640;50.140;8.138;2022-07-22T09:47:50;29.80;1.00
20963;DHT22;10640;50.140;8.138;2022-07-22T09:50:20;29.80;1.00
20963;DHT22;10640;50.140;8.138;2022-07-22T09:52:48;30.20;1.00
20963;DHT22;10640;50.140;8.138;2022-07-22T09:55:19;29.80;1.00
20963;DHT22;10640;50.140;8.138;2022-07-22T09:57:48;28.80;1.00
20963;DHT22;10640;50.140;8.138;2022-07-22T10:00:18;29.90;1.00
20963;DHT22;10640;50.140;8.138;2022-07-22T10:02:47;30.30;1.00
20963;DHT22;10640;50.140;8.138;2022-07-22T10:05:16;30.20;1.00
20963;DHT22;10640;50.140;8.138;2022-07-22T10:07:44;29.80;1.00
20963;DHT22;10640;50.140;8.138;2022-07-22T10:10:13;30.70;1.00
20963;DHT22;10640;50.140;8.138;2022-07-22T10:12:43;30.50;1.00
20963;DHT22;10640;50.140;8.138;2022-07-22T10:15:11;29.90;1.00
20963;DHT22;10640;50.140;8.138;2022-07-22T10:17:42;30.30;1.00
20963;DHT22;10640;50.140;8.138;2022-07-22T10:20:11;30.60;1.00
20963;DHT22;10640;50.140;8.138;2022-07-22T10:22:47;29.40;1.00
20963;DHT22;10640;50.140;8.138;2022-07-22T10:25:16;29.10;1.00
20963;DHT22;10640;50.140;8.138;2022-07-22T10:27:48;30.30;1.00
20963;DHT22;10640;50.140;8.138;2022-07-22T10:30:18;29.60;1.00
20963;DHT22;10640;50.140;8.138;2022-07-22T10:32:45;29.50;1.00
20963;DHT22;10640;50.140;8.138;2022-07-22T10:35:27;30.30;1.00
20963;DHT22;10640;50.140;8.138;2022-07-22T10:37:56;29.60;1.00
20963;DHT22;10640;50.140;8.138;2022-07-22T10:40:25;30.00;1.00
20963;DHT22;10640;50.140;8.138;2022-07-22T10:43:21;29.50;1.00
20963;DHT22;10640;50.140;8.138;2022-07-22T10:45:51;29.50;1.00
20963;DHT22;10640;50.140;8.138;2022-07-22T10:48:20;29.80;1.00
20963;DHT22;10640;50.140;8.138;2022-07-22T10:50:53;30.00;1.00
20963;DHT22;10640;50.140;8.138;2022-07-22T10:53:24;30.60;1.00
20963;DHT22;10640;50.140;8.138;2022-07-22T10:56:11;31.30;1.00
20963;DHT22;10640;50.140;8.138;2022-07-22T10:58:42;30.80;1.00
20963;DHT22;10640;50.140;8.138;2022-07-22T11:01:11;31.10;1.00
20963;DHT22;10640;50.140;8.138;2022-07-22T11:03:40;33.50;1.00
20963;DHT22;10640;50.140;8.138;2022-07-22T11:06:19;31.30;1.00
20963;DHT22;10640;50.140;8.138;2022-07-22T11:08:49;30.90;1.00
20963;DHT22;10640;50.140;8.138;2022-07-22T11:11:17;29.70;1.00
20963;DHT22;10640;50.140;8.138;2022-07-22T11:13:45;29.60;1.00
20963;DHT22;10640;50.140;8.138;2022-07-22T11:16:17;28.50;1.00
20963;DHT22;10640;50.140;8.138;2022-07-22T11:18:50;28.30;1.00
20963;DHT22;10640;50.140;8.138;2022-07-22T11:21:19;28.50;1.00
20963;DHT22;10640;50.140;8.138;2022-07-22T11:23:50;29.30;1.00
20963;DHT22;10640;50.140;8.138;2022-07-22T11:26:20;29.90;1.00
20963;DHT22;10640;50.140;8.138;2022-07-22T11:28:50;29.60;1.00
20963;DHT22;10640;50.140;8.138;2022-07-22T11:31:18;29.90;1.00
20963;DHT22;10640;50.140;8.138;2022-07-22T11:33:45;29.70;1.00
20963;DHT22;10640;50.140;8.138;2022-07-22T11:36:12;29.80;1.00
20963;DHT22;10640;50.140;8.138;2022-07-22T11:38:48;32.80;1.00
20963;DHT22;10640;50.140;8.138;2022-07-22T11:48:10;31.40;1.00
20963;DHT22;10640;50.140;8.138;2022-07-22T11:50:38;31.20;1.00
20963;DHT22;10640;50.140;8.138;2022-07-22T11:53:05;30.70;1.00
20963;DHT22;10640;50.140;8.138;2022-07-22T11:55:34;30.40;1.00
20963;DHT22;10640;50.140;8.138;2022-07-22T11:58:01;28.60;1.00
20963;DHT22;10640;50.140;8.138;2022-07-22T12:00:28;28.20;1.00
20963;DHT22;10640;50.140;8.138;2022-07-22T12:02:58;28.40;1.00
20963;DHT22;10640;50.140;8.138;2022-07-22T12:05:28;29.80;1.00
20963;DHT22;10640;50.140;8.138;2022-07-22T12:07:56;31.40;1.00
20963;DHT22;10640;50.140;8.138;2022-07-22T12:10:38;31.40;1.00
20963;DHT22;10640;50.140;8.138;2022-07-22T12:13:05;30.60;1.00
20963;DHT22;10640;50.140;8.138;2022-07-22T12:15:32;29.30;1.00
20963;DHT22;10640;50.140;8.138;2022-07-22T12:18:15;29.60;1.00
20963;DHT22;10640;50.140;8.138;2022-07-22T12:20:45;30.80;1.00
20963;DHT22;10640;50.140;8.138;2022-07-22T12:23:12;31.20;1.00
20963;DHT22;10640;50.140;8.138;2022-07-22T12:25:56;31.30;1.00
20963;DHT22;10640;50.140;8.138;2022-07-22T12:28:24;31.90;1.00
20963;DHT22;10640;50.140;8.138;2022-07-22T12:30:53;31.80;1.00
20963;DHT22;10640;50.140;8.138;2022-07-22T12:33:21;31.30;1.00
20963;DHT22;10640;50.140;8.138;2022-07-22T12:36:02;30.20;1.00
20963;DHT22;10640;50.140;8.138;2022-07-22T12:38:30;29.50;1.00
20963;DHT22;10640;50.140;8.138;2022-07-22T12:41:27;29.00;1.00
20963;DHT22;10640;50.140;8.138;2022-07-22T12:43:56;31.70;1.00
20963;DHT22;10640;50.140;8.138;2022-07-22T12:46:23;32.10;1.00
20963;DHT22;10640;50.140;8.138;2022-07-22T12:48:51;31.60;1.00
20963;DHT22;10640;50.140;8.138;2022-07-22T12:51:20;32.80;1.00
20963;DHT22;10640;50.140;8.138;2022-07-22T12:53:46;32.60;1.00
20963;DHT22;10640;50.140;8.138;2022-07-22T12:56:13;33.20;1.00
20963;DHT22;10640;50.140;8.138;2022-07-22T12:58:40;32.50;1.00
20963;DHT22;10640;50.140;8.138;2022-07-22T13:01:07;32.20;1.00
20963;DHT22;10640;50.140;8.138;2022-07-22T13:03:35;32.60;1.00
20963;DHT22;10640;50.140;8.138;2022-07-22T13:06:03;30.90;1.00
20963;DHT22;10640;50.140;8.138;2022-07-22T13:08:32;30.90;1.00
20963;DHT22;10640;50.140;8.138;2022-07-22T13:10:59;30.20;1.00
20963;DHT22;10640;50.140;8.138;2022-07-22T13:13:26;30.00;1.00
20963;DHT22;10640;50.140;8.138;2022-07-22T13:15:53;30.40;1.00
20963;DHT22;10640;50.140;8.138;2022-07-22T13:18:20;30.70;1.00
20963;DHT22;10640;50.140;8.138;2022-07-22T13:20:47;31.80;1.00
20963;DHT22;10640;50.140;8.138;2022-07-22T13:23:14;32.10;1.00
20963;DHT22;10640;50.140;8.138;2022-07-22T13:25:43;31.20;1.00
20963;DHT22;10640;50.140;8.138;2022-07-22T13:28:10;30.90;1.00
20963;DHT22;10640;50.140;8.138;2022-07-22T13:30:37;30.00;1.00
20963;DHT22;10640;50.140;8.138;2022-07-22T13:33:04;30.30;1.00
20963;DHT22;10640;50.140;8.138;2022-07-22T13:35:31;31.10;1.00
20963;DHT22;10640;50.140;8.138;2022-07-22T13:37:58;31.40;1.00
20963;DHT22;10640;50.140;8.138;2022-07-22T13:40:25;30.80;1.00
20963;DHT22;10640;50.140;8.138;2022-07-22T13:42:54;30.70;1.00
20963;DHT22;10640;50.140;8.138;2022-07-22T13:45:21;30.60;1.00
20963;DHT22;10640;50.140;8.138;2022-07-22T13:47:48;30.70;1.00
20963;DHT22;10640;50.140;8.138;2022-07-22T13:50:15;31.30;1.00
20963;DHT22;10640;50.140;8.138;2022-07-22T13:52:42;29.70;1.00
20963;DHT22;10640;50.140;8.138;2022-07-22T13:55:12;29.60;1.00
20963;DHT22;10640;50.140;8.138;2022-07-22T13:57:40;29.30;1.00
20963;DHT22;10640;50.140;8.138;2022-07-22T14:00:10;30.00;1.00
20963;DHT22;10640;50.140;8.138;2022-07-22T14:02:37;29.90;1.00
20963;DHT22;10640;50.140;8.138;2022-07-22T14:05:05;30.30;1.00
20963;DHT22;10640;50.140;8.138;2022-07-22T14:07:32;30.30;1.00
20963;DHT22;10640;50.140;8.138;2022-07-22T14:09:59;30.30;1.00
20963;DHT22;10640;50.140;8.138;2022-07-22T14:12:27;30.30;1.00
20963;DHT22;10640;50.140;8.138;2022-07-22T14:14:54;30.60;1.00
20963;DHT22;10640;50.140;8.138;2022-07-22T14:17:23;30.40;1.00
20963;DHT22;10640;50.140;8.138;2022-07-22T14:19:50;29.60;1.00
20963;DHT22;10640;50.140;8.138;2022-07-22T14:22:17;29.00;1.00
20963;DHT22;10640;50.140;8.138;2022-07-22T14:24:44;28.90;1.00
20963;DHT22;10640;50.140;8.138;2022-07-22T14:27:11;29.20;1.00
20963;DHT22;10640;50.140;8.138;2022-07-22T14:29:39;29.10;1.00
20963;DHT22;10640;50.140;8.138;2022-07-22T14:32:08;29.70;1.00
20963;DHT22;10640;50.140;8.138;2022-07-22T14:34:36;30.10;1.00
20963;DHT22;10640;50.140;8.138;2022-07-22T14:37:03;29.60;1.00
20963;DHT22;10640;50.140;8.138;2022-07-22T14:39:31;29.60;1.00
20963;DHT22;10640;50.140;8.138;2022-07-22T14:41:58;29.60;1.00
20963;DHT22;10640;50.140;8.138;2022-07-22T14:44:26;29.60;1.00
20963;DHT22;10640;50.140;8.138;2022-07-22T14:46:53;29.40;1.00
20963;DHT22;10640;50.140;8.138;2022-07-22T14:49:20;29.60;1.00
20963;DHT22;10640;50.140;8.138;2022-07-22T14:51:49;29.70;1.00
20963;DHT22;10640;50.140;8.138;2022-07-22T14:54:16;29.30;1.00
20963;DHT22;10640;50.140;8.138;2022-07-22T14:56:43;29.00;1.00
20963;DHT22;10640;50.140;8.138;2022-07-22T14:59:10;29.30;1.00
20963;DHT22;10640;50.140;8.138;2022-07-22T15:01:37;29.90;1.00
20963;DHT22;10640;50.140;8.138;2022-07-22T15:04:04;30.10;1.00
20963;DHT22;10640;50.140;8.138;2022-07-22T15:06:32;29.60;1.00
20963;DHT22;10640;50.140;8.138;2022-07-22T15:09:02;29.40;1.00
20963;DHT22;10640;50.140;8.138;2022-07-22T15:11:29;30.20;1.00
20963;DHT22;10640;50.140;8.138;2022-07-22T15:13:56;29.90;1.00
20963;DHT22;10640;50.140;8.138;2022-07-22T15:16:27;30.00;1.00
20963;DHT22;10640;50.140;8.138;2022-07-22T15:18:54;29.50;1.00
20963;DHT22;10640;50.140;8.138;2022-07-22T15:21:21;29.50;1.00
20963;DHT22;10640;50.140;8.138;2022-07-22T15:23:48;29.60;1.00
20963;DHT22;10640;50.140;8.138;2022-07-22T15:26:17;30.00;1.00
20963;DHT22;10640;50.140;8.138;2022-07-22T15:28:44;29.40;1.00
20963;DHT22;10640;50.140;8.138;2022-07-22T15:31:13;29.10;1.00
20963;DHT22;10640;50.140;8.138;2022-07-22T15:33:40;28.70;1.00
20963;DHT22;10640;50.140;8.138;2022-07-22T15:36:08;28.70;1.00
20963;DHT22;10640;50.140;8.138;2022-07-22T15:38:36;29.40;1.00
20963;DHT22;10640;50.140;8.138;2022-07-22T15:41:03;29.90;1.00
20963;DHT22;10640;50.140;8.138;2022-07-22T15:43:33;29.90;1.00
20963;DHT22;10640;50.140;8.138;2022-07-22T15:46:00;29.70;1.00
20963;DHT22;10640;50.140;8.138;2022-07-22T15:48:27;30.30;1.00
20963;DHT22;10640;50.140;8.138;2022-07-22T15:50:54;30.60;1.00